Time;durP1;ratioP1;P1;durP2;ratioP2;P2;SDS_P1;SDS_P2;PMS_P1;PMS_P2;Temp;Humidity;BMP_temperature;BMP_pressure;BME280_temperature;BME280_humidity;BME280_pressure;Samples;Min_cycle;Max_cycle;Signal;HPM_P1;HPM_P2
2024/03/01 00:00:27;;;;;;;47.30;23.92;;;;;;;;;;4992897;28;20073;-77
2024/03/01 00:02:53;;;;;;;43.55;22.00;;;;;;;;;;4993132;28;20034;-78
2024/03/01 00:05:18;;;;;;;46.38;23.60;;;;;;;;;;4996198;28;20049;-77
2024/03/01 00:07:43;;;;;;;48.10;22.95;;;;;;;;;;4996782;28;20118;-76
2024/03/01 00:10:08;;;;;;;43.80;22.02;;;;;;;;;;4991708;28;20396;-77
2024/03/01 00:12:34;;;;;;;46.40;23.10;;;;;;;;;;4992359;28;20042;-77
2024/03/01 00:14:59;;;;;;;50.13;23.67;;;;;;;;;;4992711;28;20116;-77
2024/03/01 00:17:24;;;;;;;44.40;22.55;;;;;;;;;;4993657;28;20034;-77
2024/03/01 00:19:49;;;;;;;51.33;24.27;;;;;;;;;;4992685;28;20065;-77
2024/03/01 00:22:15;;;;;;;45.92;21.95;;;;;;;;;;4992179;28;20037;-76
2024/03/01 00:24:41;;;;;;;68.45;27.17;;;;;;;;;;4993194;28;20038;-77
2024/03/01 00:27:06;;;;;;;65.28;27.42;;;;;;;;;;4994562;28;20031;-77
2024/03/01 00:29:31;;;;;;;67.22;27.90;;;;;;;;;;4991950;28;20041;-77
2024/03/01 00:31:56;;;;;;;51.67;24.13;;;;;;;;;;4992048;28;20487;-77
2024/03/01 00:34:22;;;;;;;56.97;25.48;;;;;;;;;;4992353;28;20113;-77
2024/03/01 00:36:47;;;;;;;54.47;23.83;;;;;;;;;;4994873;28;20043;-77
2024/03/01 00:39:12;;;;;;;59.42;25.00;;;;;;;;;;4995306;28;20038;-77
2024/03/01 00:41:37;;;;;;;73.20;27.55;;;;;;;;;;4991829;28;20069;-78
2024/03/01 00:44:02;;;;;;;67.93;25.90;;;;;;;;;;4995227;28;20042;-78
2024/03/01 00:46:28;;;;;;;61.10;23.35;;;;;;;;;;4995903;28;20031;-77
2024/03/01 00:48:54;;;;;;;98.65;26.58;;;;;;;;;;4992241;28;20087;-78
2024/03/01 00:51:19;;;;;;;78.05;28.15;;;;;;;;;;4989922;28;20403;-77
2024/03/01 00:53:44;;;;;;;61.20;26.70;;;;;;;;;;4991871;28;20038;-78
2024/03/01 00:56:11;;;;;;;59.25;23.63;;;;;;;;;;4996766;28;20062;-78
2024/03/01 00:58:36;;;;;;;56.03;25.13;;;;;;;;;;4992019;28;20045;-78
2024/03/01 01:01:01;;;;;;;52.20;23.08;;;;;;;;;;4991663;28;20414;-77
2024/03/01 01:03:26;;;;;;;80.68;26.15;;;;;;;;;;4991817;28;20026;-77
2024/03/01 01:05:51;;;;;;;187.10;32.58;;;;;;;;;;4993212;28;20501;-78
2024/03/01 01:08:18;;;;;;;78.30;25.27;;;;;;;;;;4992109;28;20510;-78
2024/03/01 01:10:43;;;;;;;55.55;25.30;;;;;;;;;;4991767;28;20050;-77
2024/03/01 01:13:08;;;;;;;94.50;26.33;;;;;;;;;;4991371;28;20041;-77
2024/03/01 01:15:34;;;;;;;63.65;25.25;;;;;;;;;;4992410;28;20034;-77
2024/03/01 01:17:59;;;;;;;52.67;24.73;;;;;;;;;;4994524;28;20146;-77
2024/03/01 01:20:24;;;;;;;70.82;26.75;;;;;;;;;;4991505;28;20049;-77
2024/03/01 01:22:50;;;;;;;92.82;26.90;;;;;;;;;;4991272;28;20383;-77
2024/03/01 01:25:15;;;;;;;69.30;25.05;;;;;;;;;;4991561;28;20045;-77
2024/03/01 01:27:40;;;;;;;66.38;26.20;;;;;;;;;;4993982;28;20046;-77
2024/03/01 01:30:06;;;;;;;80.43;26.95;;;;;;;;;;4989744;28;20041;-78
2024/03/01 01:32:31;;;;;;;82.38;26.98;;;;;;;;;;4992496;28;20572;-77
2024/03/01 01:34:56;;;;;;;78.85;24.85;;;;;;;;;;4991391;28;20030;-78
2024/03/01 01:37:21;;;;;;;68.40;26.45;;;;;;;;;;4992289;28;20026;-78
2024/03/01 01:39:46;;;;;;;70.78;25.35;;;;;;;;;;4990759;28;20026;-77
2024/03/01 01:42:12;;;;;;;71.78;25.55;;;;;;;;;;4990829;28;20045;-77
2024/03/01 01:44:37;;;;;;;94.10;27.42;;;;;;;;;;4991041;28;20053;-77
2024/03/01 01:47:02;;;;;;;67.97;26.60;;;;;;;;;;4992888;28;20033;-79
2024/03/01 01:49:28;;;;;;;69.68;25.70;;;;;;;;;;4994315;28;20040;-77
2024/03/01 01:51:54;;;;;;;55.97;25.77;;;;;;;;;;4991441;28;20037;-78
2024/03/01 01:54:19;;;;;;;83.60;26.35;;;;;;;;;;4990875;28;20027;-78
2024/03/01 01:56:45;;;;;;;101.45;27.20;;;;;;;;;;4992204;28;20384;-78
2024/03/01 01:59:12;;;;;;;61.78;24.17;;;;;;;;;;4991075;28;20037;-78
2024/03/01 02:01:38;;;;;;;51.92;22.50;;;;;;;;;;4990291;28;20035;-78
2024/03/01 02:04:03;;;;;;;125.53;29.65;;;;;;;;;;4990914;28;20407;-78
2024/03/01 02:06:29;;;;;;;44.85;25.00;;;;;;;;;;4994655;28;20049;-79
2024/03/01 02:08:55;;;;;;;66.85;24.80;;;;;;;;;;4991140;28;20062;-78
2024/03/01 02:11:20;;;;;;;75.70;27.63;;;;;;;;;;4992311;28;20414;-77
2024/03/01 02:13:45;;;;;;;101.88;28.25;;;;;;;;;;4991114;28;20088;-78
2024/03/01 02:16:10;;;;;;;87.60;27.92;;;;;;;;;;4995849;28;20517;-77
2024/03/01 02:18:35;;;;;;;101.68;28.77;;;;;;;;;;4990706;28;20065;-77
2024/03/01 02:21:04;;;;;;;64.32;25.08;;;;;;;;;;4990324;28;20403;-77
2024/03/01 02:23:29;;;;;;;104.10;28.52;;;;;;;;;;4989339;28;20509;-77
2024/03/01 02:25:55;;;;;;;75.38;25.23;;;;;;;;;;5003610;28;20034;-78
2024/03/01 02:28:20;;;;;;;84.10;25.50;;;;;;;;;;4994817;28;20050;-77
2024/03/01 02:30:45;;;;;;;77.20;27.55;;;;;;;;;;4990528;28;20022;-77
2024/03/01 02:33:11;;;;;;;58.58;26.67;;;;;;;;;;4990114;28;20040;-78
2024/03/01 02:35:36;;;;;;;53.72;24.85;;;;;;;;;;4990519;28;20495;-78
2024/03/01 02:38:01;;;;;;;47.63;24.60;;;;;;;;;;4993554;28;20026;-78
2024/03/01 02:40:26;;;;;;;90.40;26.23;;;;;;;;;;4990754;28;20030;-77
2024/03/01 02:42:51;;;;;;;48.20;24.45;;;;;;;;;;4990290;28;20052;-77
2024/03/01 02:45:17;;;;;;;48.22;25.52;;;;;;;;;;4991168;28;20058;-77
2024/03/01 02:47:42;;;;;;;78.32;26.45;;;;;;;;;;4994956;28;20388;-77
2024/03/01 02:50:08;;;;;;;72.35;24.45;;;;;;;;;;4990134;28;20050;-77
2024/03/01 02:52:34;;;;;;;68.82;26.10;;;;;;;;;;4989884;28;20035;-78
2024/03/01 02:55:00;;;;;;;110.05;29.10;;;;;;;;;;4992361;28;20038;-76
2024/03/01 02:57:25;;;;;;;58.80;24.77;;;;;;;;;;4990717;28;20474;-78
2024/03/01 02:59:50;;;;;;;53.53;25.20;;;;;;;;;;4992444;28;20066;-77
2024/03/01 03:02:15;;;;;;;72.25;25.38;;;;;;;;;;4993540;28;20065;-78
2024/03/01 03:04:41;;;;;;;66.35;28.05;;;;;;;;;;4990196;28;20038;-78
2024/03/01 03:07:06;;;;;;;57.17;23.35;;;;;;;;;;4992653;28;20053;-78
2024/03/01 03:09:31;;;;;;;76.20;24.65;;;;;;;;;;4993949;28;20030;-78
2024/03/01 03:11:56;;;;;;;85.43;26.75;;;;;;;;;;4993709;28;20491;-78
2024/03/01 03:14:22;;;;;;;68.65;25.13;;;;;;;;;;4993973;28;20061;-77
2024/03/01 03:16:50;;;;;;;85.93;25.17;;;;;;;;;;4996409;28;20031;-77
2024/03/01 03:19:15;;;;;;;61.22;23.65;;;;;;;;;;4992215;28;20502;-78
2024/03/01 03:21:41;;;;;;;49.58;24.98;;;;;;;;;;4995758;28;20085;-78
2024/03/01 03:24:07;;;;;;;50.63;23.77;;;;;;;;;;4993906;28;20111;-78
2024/03/01 03:26:32;;;;;;;55.25;27.35;;;;;;;;;;4997322;28;20041;-78
2024/03/01 03:28:57;;;;;;;73.32;31.25;;;;;;;;;;4993885;28;20038;-77
2024/03/01 03:31:22;;;;;;;105.15;37.00;;;;;;;;;;4993212;28;20027;-78
2024/03/01 03:33:47;;;;;;;120.30;35.90;;;;;;;;;;4993435;28;20479;-78
2024/03/01 03:36:13;;;;;;;59.90;28.95;;;;;;;;;;4994661;28;20022;-78
2024/03/01 03:38:38;;;;;;;91.15;33.38;;;;;;;;;;4993528;28;20041;-78
2024/03/01 03:41:04;;;;;;;79.85;34.67;;;;;;;;;;4993277;28;20073;-77
2024/03/01 03:43:29;;;;;;;84.90;32.15;;;;;;;;;;4993313;28;20045;-78
2024/03/01 03:45:54;;;;;;;54.40;27.73;;;;;;;;;;4994648;28;20030;-77
2024/03/01 03:48:19;;;;;;;76.85;29.40;;;;;;;;;;4995213;28;20088;-77
2024/03/01 03:50:44;;;;;;;61.10;31.58;;;;;;;;;;4993360;28;20038;-78
2024/03/01 03:53:10;;;;;;;60.53;27.48;;;;;;;;;;4992657;28;20038;-78
2024/03/01 03:55:35;;;;;;;67.57;28.50;;;;;;;;;;4993100;28;20026;-78
2024/03/01 03:58:00;;;;;;;56.38;25.45;;;;;;;;;;4998265;28;20030;-78
2024/03/01 04:00:25;;;;;;;44.67;21.33;;;;;;;;;;4992991;28;20070;-77
2024/03/01 04:02:50;;;;;;;43.45;22.48;;;;;;;;;;4992638;28;20582;-78
2024/03/01 04:05:16;;;;;;;41.15;20.23;;;;;;;;;;4993040;28;20030;-78
2024/03/01 04:07:41;;;;;;;50.53;24.23;;;;;;;;;;4996403;28;20454;-78
2024/03/01 04:10:06;;;;;;;43.88;21.60;;;;;;;;;;4994373;28;20470;-79
2024/03/01 04:12:32;;;;;;;37.33;19.85;;;;;;;;;;4992432;28;20038;-78
2024/03/01 04:14:57;;;;;;;50.20;23.40;;;;;;;;;;4992709;28;20034;-78
2024/03/01 04:17:24;;;;;;;42.88;25.27;;;;;;;;;;4995933;28;20034;-78
2024/03/01 04:19:49;;;;;;;48.72;22.33;;;;;;;;;;4992675;28;20109;-78
2024/03/01 04:22:15;;;;;;;37.75;21.08;;;;;;;;;;4992342;28;20491;-79
2024/03/01 04:24:41;;;;;;;41.60;23.02;;;;;;;;;;4992225;28;20049;-78
2024/03/01 04:27:07;;;;;;;36.50;21.40;;;;;;;;;;4994204;28;20117;-78
2024/03/01 04:29:32;;;;;;;31.95;20.35;;;;;;;;;;4992392;28;20117;-79
2024/03/01 04:31:57;;;;;;;48.00;21.67;;;;;;;;;;4992351;28;20523;-78
2024/03/01 04:34:22;;;;;;;44.35;19.83;;;;;;;;;;4992518;28;20494;-78
2024/03/01 04:36:48;;;;;;;47.10;21.20;;;;;;;;;;4994966;28;20026;-77
2024/03/01 04:39:16;;;;;;;42.90;20.00;;;;;;;;;;4992513;28;20038;-78
2024/03/01 04:41:42;;;;;;;40.60;19.33;;;;;;;;;;4989895;28;20031;-77
2024/03/01 04:44:07;;;;;;;46.28;21.08;;;;;;;;;;4989416;28;20505;-78
2024/03/01 04:46:32;;;;;;;33.45;19.13;;;;;;;;;;4995075;28;20041;-78
2024/03/01 04:48:57;;;;;;;32.00;17.85;;;;;;;;;;4988749;28;20544;-77
2024/03/01 04:51:23;;;;;;;46.55;22.08;;;;;;;;;;4991686;28;20113;-78
2024/03/01 04:53:48;;;;;;;40.80;20.13;;;;;;;;;;4993537;28;20189;-79
2024/03/01 04:56:13;;;;;;;43.85;22.27;;;;;;;;;;4992700;28;20400;-79
2024/03/01 04:58:39;;;;;;;36.22;20.77;;;;;;;;;;4992375;28;20674;-78
2024/03/01 05:01:04;;;;;;;34.78;19.95;;;;;;;;;;4991685;28;20038;-78
2024/03/01 05:03:30;;;;;;;36.17;19.48;;;;;;;;;;4989744;28;20041;-78
2024/03/01 05:05:56;;;;;;;36.33;18.77;;;;;;;;;;4994656;28;20112;-79
2024/03/01 05:08:21;;;;;;;49.65;21.20;;;;;;;;;;4993513;28;20065;-79
2024/03/01 05:10:49;;;;;;;24.65;17.02;;;;;;;;;;4991530;28;20570;-78
2024/03/01 05:13:14;;;;;;;32.53;19.38;;;;;;;;;;4990917;28;20510;-79
2024/03/01 05:15:40;;;;;;;46.47;22.83;;;;;;;;;;4995407;28;20038;-78
2024/03/01 05:18:05;;;;;;;36.83;19.70;;;;;;;;;;4994368;28;20034;-79
2024/03/01 05:20:30;;;;;;;43.53;21.63;;;;;;;;;;4991424;28;20405;-78
2024/03/01 05:22:56;;;;;;;38.08;19.75;;;;;;;;;;4990147;28;20038;-77
2024/03/01 05:25:21;;;;;;;42.13;21.67;;;;;;;;;;4991582;28;20034;-77
2024/03/01 05:27:48;;;;;;;57.85;21.13;;;;;;;;;;4993778;28;20113;-78
2024/03/01 05:30:16;;;;;;;63.13;27.90;;;;;;;;;;4990376;28;20054;-78
2024/03/01 05:32:42;;;;;;;42.88;22.17;;;;;;;;;;4995258;28;20125;-77
2024/03/01 05:35:08;;;;;;;53.92;21.25;;;;;;;;;;4999791;28;20034;-78
2024/03/01 05:37:33;;;;;;;32.20;17.55;;;;;;;;;;4991698;28;20934;-78
2024/03/01 05:39:58;;;;;;;78.60;20.05;;;;;;;;;;4991260;28;20506;-78
2024/03/01 05:42:24;;;;;;;75.88;18.42;;;;;;;;;;4990667;28;20149;-77
2024/03/01 05:44:49;;;;;;;78.97;18.95;;;;;;;;;;4995262;28;20041;-78
2024/03/01 05:47:14;;;;;;;57.50;19.20;;;;;;;;;;4992231;28;20034;-77
2024/03/01 05:49:40;;;;;;;106.43;19.02;;;;;;;;;;4990717;28;20553;-77
2024/03/01 05:52:05;;;;;;;48.95;17.83;;;;;;;;;;4986658;28;20205;-76
2024/03/01 05:54:31;;;;;;;53.72;19.55;;;;;;;;;;4990305;28;20045;-77
2024/03/01 05:56:56;;;;;;;70.10;23.38;;;;;;;;;;4995065;28;20034;-77
2024/03/01 05:59:22;;;;;;;61.28;27.63;;;;;;;;;;4990036;28;20455;-77
2024/03/01 06:01:47;;;;;;;52.40;21.23;;;;;;;;;;4988534;28;20459;-79
2024/03/01 06:04:13;;;;;;;105.82;23.13;;;;;;;;;;4990070;28;20026;-77
2024/03/01 06:06:38;;;;;;;121.82;25.35;;;;;;;;;;4992184;28;20029;-78
2024/03/01 06:09:04;;;;;;;115.30;19.00;;;;;;;;;;4990701;28;20046;-79
2024/03/01 06:11:29;;;;;;;80.05;19.00;;;;;;;;;;4989713;28;20021;-80
2024/03/01 06:13:54;;;;;;;97.40;17.63;;;;;;;;;;4991756;28;20042;-78
2024/03/01 06:16:20;;;;;;;57.55;15.32;;;;;;;;;;4989524;28;20411;-77
2024/03/01 06:18:45;;;;;;;55.30;16.67;;;;;;;;;;4989096;28;20109;-77
2024/03/01 06:21:10;;;;;;;71.97;16.42;;;;;;;;;;4988426;28;20033;-77
2024/03/01 06:23:35;;;;;;;54.45;16.77;;;;;;;;;;4991212;28;20034;-78
2024/03/01 06:26:00;;;;;;;58.22;16.52;;;;;;;;;;4990563;28;20042;-77
2024/03/01 06:28:26;;;;;;;45.10;13.82;;;;;;;;;;4992151;28;20603;-79
2024/03/01 06:30:51;;;;;;;39.65;14.77;;;;;;;;;;4990455;28;20049;-77
2024/03/01 06:33:16;;;;;;;47.45;19.35;;;;;;;;;;4988877;28;20045;-78
2024/03/01 06:35:41;;;;;;;35.90;17.13;;;;;;;;;;4994161;28;20041;-79
2024/03/01 06:38:07;;;;;;;50.08;16.65;;;;;;;;;;4992472;28;20823;-77
2024/03/01 06:40:34;;;;;;;25.45;13.35;;;;;;;;;;4990487;28;20042;-78
2024/03/01 06:42:59;;;;;;;25.42;16.02;;;;;;;;;;4994359;28;20081;-77
2024/03/01 06:45:24;;;;;;;50.65;16.88;;;;;;;;;;4994494;28;20415;-78
2024/03/01 06:47:49;;;;;;;34.30;14.82;;;;;;;;;;4995874;28;20049;-78
2024/03/01 06:50:14;;;;;;;31.55;13.90;;;;;;;;;;4993931;28;20520;-78
2024/03/01 06:52:40;;;;;;;23.90;12.50;;;;;;;;;;4994007;28;20038;-78
2024/03/01 06:55:06;;;;;;;42.72;14.85;;;;;;;;;;4994282;28;20034;-78
2024/03/01 06:57:31;;;;;;;56.80;13.00;;;;;;;;;;4992291;28;20030;-79
2024/03/01 06:59:56;;;;;;;30.13;15.40;;;;;;;;;;4994410;28;20061;-78
2024/03/01 07:02:22;;;;;;;26.25;13.73;;;;;;;;;;4993942;28;20057;-78
2024/03/01 07:04:47;;;;;;;28.00;14.70;;;;;;;;;;4994172;28;20027;-78
2024/03/01 07:07:16;;;;;;;44.88;16.73;;;;;;;;;;4998309;28;20080;-78
2024/03/01 07:09:41;;;;;;;31.55;13.20;;;;;;;;;;4992788;28;20070;-78
2024/03/01 07:12:06;;;;;;;28.02;14.57;;;;;;;;;;4993549;28;20057;-78
2024/03/01 07:14:32;;;;;;;35.50;13.77;;;;;;;;;;4993767;28;20463;-77
2024/03/01 07:16:57;;;;;;;46.42;14.48;;;;;;;;;;4994913;28;20027;-77
2024/03/01 07:19:22;;;;;;;40.35;17.38;;;;;;;;;;4993960;28;20061;-77
2024/03/01 07:21:47;;;;;;;48.38;14.18;;;;;;;;;;4993307;28;20034;-77
2024/03/01 07:24:12;;;;;;;28.02;13.82;;;;;;;;;;4993668;28;20033;-79
2024/03/01 07:26:38;;;;;;;21.33;12.38;;;;;;;;;;4995537;28;20134;-78
2024/03/01 07:29:03;;;;;;;23.88;13.48;;;;;;;;;;4993873;28;20062;-77
2024/03/01 07:31:28;;;;;;;30.83;13.63;;;;;;;;;;4993250;28;20034;-77
2024/03/01 07:33:55;;;;;;;43.88;19.10;;;;;;;;;;4993290;28;20034;-78
2024/03/01 07:36:20;;;;;;;31.08;14.13;;;;;;;;;;4993658;28;20241;-78
2024/03/01 07:38:47;;;;;;;35.70;16.73;;;;;;;;;;4994383;28;20422;-77
2024/03/01 07:41:12;;;;;;;42.40;16.73;;;;;;;;;;4992501;28;20475;-77
2024/03/01 07:43:37;;;;;;;32.00;17.08;;;;;;;;;;4994561;28;20042;-77
2024/03/01 07:46:03;;;;;;;62.92;17.17;;;;;;;;;;4993723;28;20053;-77
2024/03/01 07:48:28;;;;;;;24.67;15.43;;;;;;;;;;4993326;28;20061;-77
2024/03/01 07:50:54;;;;;;;23.52;15.60;;;;;;;;;;4992680;28;20042;-77
2024/03/01 07:53:19;;;;;;;22.90;14.52;;;;;;;;;;4992463;28;20031;-78
2024/03/01 07:55:44;;;;;;;33.25;15.85;;;;;;;;;;4993094;28;20399;-77
2024/03/01 07:58:09;;;;;;;23.77;15.50;;;;;;;;;;4996485;28;20030;-79
2024/03/01 08:00:35;;;;;;;28.42;17.98;;;;;;;;;;4991627;28;20058;-78
2024/03/01 08:03:06;;;;;;;28.98;18.92;;;;;;;;;;4993625;28;20593;-78
2024/03/01 08:05:31;;;;;;;29.40;18.40;;;;;;;;;;4998339;28;20042;-79
2024/03/01 08:07:56;;;;;;;27.40;18.10;;;;;;;;;;4989988;28;20042;-77
2024/03/01 08:10:22;;;;;;;23.55;15.52;;;;;;;;;;4994248;28;20113;-78
2024/03/01 08:12:47;;;;;;;28.08;18.50;;;;;;;;;;4992571;28;20038;-77
2024/03/01 08:15:18;;;;;;;25.73;16.65;;;;;;;;;;4994475;28;20026;-78
2024/03/01 08:17:44;;;;;;;23.67;16.67;;;;;;;;;;4993002;28;20023;-77
2024/03/01 08:20:20;;;;;;;27.65;17.58;;;;;;;;;;4992641;28;20565;-78
2024/03/01 08:22:45;;;;;;;21.73;15.07;;;;;;;;;;4992151;28;20419;-78
2024/03/01 08:25:11;;;;;;;25.83;18.35;;;;;;;;;;4998853;28;20030;-77
2024/03/01 08:27:36;;;;;;;24.92;15.88;;;;;;;;;;4992599;28;20026;-78
2024/03/01 08:30:01;;;;;;;22.92;14.95;;;;;;;;;;4992503;28;20034;-77
2024/03/01 08:32:36;;;;;;;25.45;17.02;;;;;;;;;;4993715;28;20038;-78
2024/03/01 08:35:03;;;;;;;29.92;17.90;;;;;;;;;;4989397;28;20030;-78
2024/03/01 08:37:29;;;;;;;30.35;18.90;;;;;;;;;;4998094;28;20065;-78
2024/03/01 08:39:55;;;;;;;28.50;17.80;;;;;;;;;;4991630;28;20031;-78
2024/03/01 08:42:21;;;;;;;29.88;18.95;;;;;;;;;;4990431;28;20026;-78
2024/03/01 08:44:59;;;;;;;26.40;17.05;;;;;;;;;;4993979;28;20037;-77
2024/03/01 08:47:24;;;;;;;28.80;18.33;;;;;;;;;;4994889;28;20034;-78
2024/03/01 08:49:51;;;;;;;33.42;20.02;;;;;;;;;;4992144;28;20173;-79
2024/03/01 08:52:35;;;;;;;36.25;22.35;;;;;;;;;;4991728;28;20077;-78
2024/03/01 08:55:09;;;;;;;34.10;20.70;;;;;;;;;;4990728;28;20062;-79
2024/03/01 08:57:36;;;;;;;25.95;16.80;;;;;;;;;;4993523;28;20035;-77
2024/03/01 09:00:01;;;;;;;27.75;18.52;;;;;;;;;;4998183;28;20045;-78
2024/03/01 09:02:26;;;;;;;27.98;18.08;;;;;;;;;;4991698;28;20034;-78
2024/03/01 09:04:52;;;;;;;27.38;17.83;;;;;;;;;;4993348;28;20599;-78
2024/03/01 09:07:26;;;;;;;30.90;18.88;;;;;;;;;;4994926;28;20311;-77
2024/03/01 09:09:51;;;;;;;30.05;18.90;;;;;;;;;;4991706;28;20499;-78
2024/03/01 09:12:24;;;;;;;29.13;18.75;;;;;;;;;;4990995;28;20080;-79
2024/03/01 09:14:49;;;;;;;31.10;19.13;;;;;;;;;;4992437;28;20031;-78
2024/03/01 09:17:14;;;;;;;32.17;18.70;;;;;;;;;;4997486;28;20026;-78
2024/03/01 09:19:40;;;;;;;26.70;17.45;;;;;;;;;;4992633;28;20030;-78
2024/03/01 09:22:06;;;;;;;26.77;17.02;;;;;;;;;;4994169;28;20100;-78
2024/03/01 09:24:35;;;;;;;28.45;17.83;;;;;;;;;;4995447;28;20034;-78
2024/03/01 09:27:03;;;;;;;27.83;17.90;;;;;;;;;;4994646;28;20510;-78
2024/03/01 09:29:36;;;;;;;30.55;18.40;;;;;;;;;;4986367;28;20065;-78
2024/03/01 09:32:01;;;;;;;33.85;19.55;;;;;;;;;;4988489;28;20125;-78
2024/03/01 09:34:37;;;;;;;34.08;19.83;;;;;;;;;;4990073;28;20109;-78
2024/03/01 09:37:03;;;;;;;29.25;19.08;;;;;;;;;;4992614;28;20089;-78
2024/03/01 09:39:29;;;;;;;30.98;19.95;;;;;;;;;;4991445;28;20314;-77
2024/03/01 09:42:15;;;;;;;30.13;18.95;;;;;;;;;;4991232;28;20026;-78
2024/03/01 09:45:00;;;;;;;30.52;21.15;;;;;;;;;;4989514;28;20034;-77
2024/03/01 09:47:25;;;;;;;29.17;17.27;;;;;;;;;;4992953;28;20062;-78
2024/03/01 09:49:50;;;;;;;29.83;18.17;;;;;;;;;;4991249;28;20529;-78
2024/03/01 09:52:21;;;;;;;26.92;17.13;;;;;;;;;;4990858;28;20308;-77
2024/03/01 09:55:05;;;;;;;29.02;17.83;;;;;;;;;;4991120;28;20019;-78
2024/03/01 09:57:45;;;;;;;30.00;19.15;;;;;;;;;;4990674;28;20034;-78
2024/03/01 10:00:10;;;;;;;30.35;19.27;;;;;;;;;;4991032;28;20577;-78
2024/03/01 10:02:44;;;;;;;30.70;20.13;;;;;;;;;;4990730;28;20487;-80
2024/03/01 10:05:22;;;;;;;30.10;18.20;;;;;;;;;;4990718;28;20058;-78
2024/03/01 10:08:08;;;;;;;29.98;16.67;;;;;;;;;;4992471;28;20165;-79
2024/03/01 10:10:42;;;;;;;33.13;18.35;;;;;;;;;;4987729;28;20041;-78
2024/03/01 10:13:11;;;;;;;30.65;19.95;;;;;;;;;;5001419;28;20039;-79
2024/03/01 10:15:40;;;;;;;27.63;17.30;;;;;;;;;;4990254;28;20027;-79
2024/03/01 10:18:14;;;;;;;28.33;15.95;;;;;;;;;;4993460;28;20025;-78
2024/03/01 10:20:53;;;;;;;27.73;15.98;;;;;;;;;;4988000;28;20060;-78
2024/03/01 10:23:36;;;;;;;28.63;17.55;;;;;;;;;;4996320;28;20036;-78
2024/03/01 10:26:11;;;;;;;32.90;20.55;;;;;;;;;;4987460;28;20078;-78
2024/03/01 10:28:55;;;;;;;30.70;17.20;;;;;;;;;;4991960;28;20038;-78
2024/03/01 10:31:39;;;;;;;32.05;18.33;;;;;;;;;;4987197;28;20038;-78
2024/03/01 10:34:10;;;;;;;34.92;20.75;;;;;;;;;;4989802;28;20117;-78
2024/03/01 10:36:42;;;;;;;29.65;17.83;;;;;;;;;;4984972;28;20030;-80
2024/03/01 10:39:23;;;;;;;32.97;19.65;;;;;;;;;;5008838;28;20033;-79
2024/03/01 10:41:54;;;;;;;28.75;17.65;;;;;;;;;;4989363;28;20036;-79
2024/03/01 10:44:37;;;;;;;29.35;18.08;;;;;;;;;;5001842;28;20030;-79
2024/03/01 10:47:13;;;;;;;32.65;18.45;;;;;;;;;;4997103;28;20399;-79
2024/03/01 10:49:39;;;;;;;32.22;18.88;;;;;;;;;;4985128;28;20455;-78
2024/03/01 10:52:10;;;;;;;30.50;17.20;;;;;;;;;;4992085;28;20030;-79
2024/03/01 10:54:35;;;;;;;30.17;16.98;;;;;;;;;;4990313;28;20101;-79
2024/03/01 10:57:02;;;;;;;28.35;17.92;;;;;;;;;;4991181;28;20590;-79
2024/03/01 10:59:27;;;;;;;35.08;19.33;;;;;;;;;;4993383;28;20088;-79
2024/03/01 11:01:55;;;;;;;35.63;18.00;;;;;;;;;;4989408;28;20022;-79
2024/03/01 11:04:25;;;;;;;30.85;19.15;;;;;;;;;;4990681;28;20356;-78
2024/03/01 11:07:05;;;;;;;31.80;16.70;;;;;;;;;;4992232;28;20038;-79
2024/03/01 11:09:40;;;;;;;28.25;17.17;;;;;;;;;;4987742;28;20023;-79
2024/03/01 11:12:05;;;;;;;31.05;18.42;;;;;;;;;;4988866;28;20038;-78
2024/03/01 11:14:31;;;;;;;28.73;17.17;;;;;;;;;;4991016;28;20418;-79
2024/03/01 11:16:57;;;;;;;28.00;16.67;;;;;;;;;;4993733;28;20026;-79
2024/03/01 11:19:25;;;;;;;30.80;17.90;;;;;;;;;;4992521;28;20073;-80
2024/03/01 11:22:00;;;;;;;27.35;14.85;;;;;;;;;;4992565;28;20102;-81
2024/03/01 11:24:46;;;;;;;32.35;16.90;;;;;;;;;;4988612;28;20531;-80
2024/03/01 11:27:14;;;;;;;28.70;17.38;;;;;;;;;;4999014;28;20046;-79
2024/03/01 11:29:42;;;;;;;25.58;16.45;;;;;;;;;;4991216;28;20041;-79
2024/03/01 11:32:12;;;;;;;28.17;15.88;;;;;;;;;;4988343;28;20126;-79
2024/03/01 11:34:58;;;;;;;29.17;16.50;;;;;;;;;;4995123;28;20081;-79
2024/03/01 11:37:36;;;;;;;29.35;17.40;;;;;;;;;;4993415;28;20032;-78
2024/03/01 11:40:07;;;;;;;28.60;15.05;;;;;;;;;;4990238;28;20026;-79
2024/03/01 11:42:41;;;;;;;27.63;15.52;;;;;;;;;;4992006;28;20093;-79
2024/03/01 11:45:06;;;;;;;31.92;17.40;;;;;;;;;;4993605;28;20069;-79
2024/03/01 11:47:41;;;;;;;28.05;16.15;;;;;;;;;;4993780;28;20410;-79
2024/03/01 11:50:26;;;;;;;27.20;16.73;;;;;;;;;;4995669;28;20030;-79
2024/03/01 11:52:59;;;;;;;28.13;16.75;;;;;;;;;;4992933;28;20491;-78
2024/03/01 11:55:27;;;;;;;27.40;15.52;;;;;;;;;;4990796;28;20034;-78
2024/03/01 11:57:55;;;;;;;29.88;17.20;;;;;;;;;;4995440;28;20057;-79
2024/03/01 12:00:41;;;;;;;28.27;15.73;;;;;;;;;;4989498;28;20054;-79
2024/03/01 12:03:25;;;;;;;24.98;15.63;;;;;;;;;;4992904;28;20104;-79
2024/03/01 12:06:03;;;;;;;28.60;15.27;;;;;;;;;;4993795;28;20044;-79
2024/03/01 12:08:37;;;;;;;27.95;17.13;;;;;;;;;;4993949;28;20038;-79
2024/03/01 12:11:21;;;;;;;30.65;18.73;;;;;;;;;;4997335;28;20403;-79
2024/03/01 12:13:55;;;;;;;25.38;15.70;;;;;;;;;;4982263;28;20041;-79
2024/03/01 12:16:32;;;;;;;27.23;16.40;;;;;;;;;;4993340;28;20023;-79
2024/03/01 12:19:09;;;;;;;27.17;15.43;;;;;;;;;;4991874;28;20034;-79
2024/03/01 12:21:53;;;;;;;26.92;16.98;;;;;;;;;;4992585;28;20139;-79
2024/03/01 12:24:19;;;;;;;28.05;15.68;;;;;;;;;;4985804;28;20054;-79
2024/03/01 12:26:53;;;;;;;23.80;14.57;;;;;;;;;;4991856;28;20606;-79
2024/03/01 12:29:22;;;;;;;28.20;16.98;;;;;;;;;;4994177;28;20367;-79
2024/03/01 12:31:55;;;;;;;30.20;16.55;;;;;;;;;;4992366;28;20042;-79
2024/03/01 12:34:29;;;;;;;29.45;15.93;;;;;;;;;;5005928;28;20061;-79
2024/03/01 12:37:02;;;;;;;52.63;32.53;;;;;;;;;;4990522;28;20030;-78
2024/03/01 12:39:33;;;;;;;29.00;18.77;;;;;;;;;;4990249;28;20030;-78
2024/03/01 12:42:16;;;;;;;26.65;16.27;;;;;;;;;;4992294;28;20406;-79
2024/03/01 12:44:49;;;;;;;20.80;13.63;;;;;;;;;;4989949;28;20057;-79
2024/03/01 12:47:14;;;;;;;;;;;;;;;;;;5007892;28;20022;-79
2024/03/01 12:49:47;;;;;;;24.95;14.18;;;;;;;;;;4993752;28;20008;-79
2024/03/01 12:52:30;;;;;;;24.48;15.02;;;;;;;;;;4992095;28;20088;-78
2024/03/01 12:55:00;;;;;;;25.77;15.75;;;;;;;;;;4991828;28;20545;-79
2024/03/01 12:57:44;;;;;;;27.50;16.60;;;;;;;;;;4992480;28;20038;-79
2024/03/01 13:00:14;;;;;;;23.92;14.60;;;;;;;;;;4986584;28;20054;-79
2024/03/01 13:02:47;;;;;;;24.38;15.07;;;;;;;;;;4992490;28;20411;-79
2024/03/01 13:05:36;;;;;;;25.75;14.60;;;;;;;;;;4992350;28;20550;-79
2024/03/01 13:08:03;;;;;;;25.10;14.38;;;;;;;;;;4993206;28;20042;-78
2024/03/01 13:10:29;;;;;;;25.65;15.00;;;;;;;;;;4992000;28;20439;-79
2024/03/01 13:12:55;;;;;;;28.48;15.02;;;;;;;;;;4990458;28;20077;-79
2024/03/01 13:15:21;;;;;;;24.80;15.23;;;;;;;;;;4992061;28;20061;-78
2024/03/01 13:17:51;;;;;;;26.38;15.85;;;;;;;;;;4994122;28;20050;-79
2024/03/01 13:20:27;;;;;;;26.05;16.48;;;;;;;;;;4990581;28;20031;-79
2024/03/01 13:23:15;;;;;;;27.92;18.50;;;;;;;;;;4990242;28;20048;-78
2024/03/01 13:25:51;;;;;;;27.00;16.73;;;;;;;;;;4963895;28;20398;-79
2024/03/01 13:28:20;;;;;;;24.38;15.30;;;;;;;;;;4995034;28;20038;-79
2024/03/01 13:30:47;;;;;;;22.65;14.93;;;;;;;;;;4990352;28;20030;-79
2024/03/01 13:33:20;;;;;;;26.13;14.98;;;;;;;;;;4991278;28;20042;-79
2024/03/01 13:35:47;;;;;;;25.95;14.95;;;;;;;;;;4992163;28;20033;-79
2024/03/01 13:38:31;;;;;;;25.92;15.02;;;;;;;;;;4996399;28;20037;-78
2024/03/01 13:41:01;;;;;;;24.58;15.90;;;;;;;;;;4989824;28;20439;-79
2024/03/01 13:43:28;;;;;;;24.95;13.43;;;;;;;;;;4988512;28;20058;-78
2024/03/01 13:46:03;;;;;;;24.40;13.68;;;;;;;;;;4991716;28;20730;-78
2024/03/01 13:48:32;;;;;;;21.90;13.60;;;;;;;;;;4991523;28;20037;-78
2024/03/01 13:50:58;;;;;;;21.90;13.23;;;;;;;;;;4990496;28;20046;-79
2024/03/01 13:53:25;;;;;;;27.77;15.50;;;;;;;;;;4991460;28;20526;-79
2024/03/01 13:55:53;;;;;;;25.02;14.82;;;;;;;;;;4992407;28;21227;-78
2024/03/01 13:58:19;;;;;;;24.42;14.38;;;;;;;;;;4995766;28;20026;-79
2024/03/01 14:00:52;;;;;;;22.15;13.65;;;;;;;;;;4991139;28;20038;-79
2024/03/01 14:03:18;;;;;;;25.98;16.00;;;;;;;;;;4988070;28;20045;-79
2024/03/01 14:05:43;;;;;;;25.13;14.63;;;;;;;;;;4991560;28;20030;-79
2024/03/01 14:08:10;;;;;;;24.02;15.10;;;;;;;;;;4995004;28;20038;-79
2024/03/01 14:10:36;;;;;;;29.23;15.20;;;;;;;;;;4993364;28;20030;-79
2024/03/01 14:13:02;;;;;;;21.58;13.85;;;;;;;;;;4990940;28;20410;-78
2024/03/01 14:15:27;;;;;;;20.83;13.45;;;;;;;;;;4991067;28;20038;-80
2024/03/01 14:17:53;;;;;;;20.00;12.57;;;;;;;;;;4990852;28;20037;-79
2024/03/01 14:20:19;;;;;;;24.10;14.90;;;;;;;;;;4991034;28;20026;-79